TimeCST,TemperatureF,Dew PointF,Humidity,Sea Level PressureIn,VisibilityMPH,Wind Direction,Wind SpeedMPH,Gust SpeedMPH,PrecipitationIn,Events,Conditions,WindDirDegrees,DateUTC
12:13 AM,48.2,33.8,58,30.13,10.0,SSE,11.5,16.1,N/A,,Clear,160,2012-11-18 06:13:00
12:33 AM,48.2,33.8,58,30.12,10.0,SSE,9.2,-,N/A,,Mostly Cloudy,160,2012-11-18 06:33:00
12:53 AM,48.2,33.8,58,30.12,10.0,SSE,9.2,-,N/A,,Overcast,150,2012-11-18 06:53:00
1:13 AM,48.2,33.8,58,30.12,10.0,SSE,8.1,16.1,N/A,,Overcast,150,2012-11-18 07:13:00
1:33 AM,48.2,33.8,58,30.11,10.0,SSE,9.2,-,N/A,,Mostly Cloudy,160,2012-11-18 07:33:00
1:53 AM,46.4,33.8,62,30.11,10.0,SSE,6.9,-,N/A,,Scattered Clouds,150,2012-11-18 07:53:00
2:13 AM,46.4,33.8,62,30.11,10.0,SSE,8.1,-,N/A,,Mostly Cloudy,160,2012-11-18 08:13:00
2:33 AM,46.4,33.8,62,30.11,10.0,SSE,8.1,-,N/A,,Scattered Clouds,160,2012-11-18 08:33:00
2:53 AM,48.2,33.8,58,30.11,10.0,SSE,6.9,-,N/A,,Scattered Clouds,160,2012-11-18 08:53:00
3:14 AM,46.4,33.8,62,30.10,10.0,SSE,6.9,-,N/A,,Scattered Clouds,160,2012-11-18 09:14:00
3:33 AM,46.4,33.8,62,30.10,10.0,SSE,8.1,-,N/A,,Scattered Clouds,150,2012-11-18 09:33:00
3:53 AM,46.4,33.8,62,30.09,10.0,SSE,10.4,-,N/A,,Mostly Cloudy,150,2012-11-18 09:53:00
4:14 AM,46.4,33.8,62,30.09,10.0,SSE,8.1,-,N/A,,Scattered Clouds,150,2012-11-18 10:14:00
4:33 AM,46.4,33.8,62,30.09,10.0,SSE,8.1,-,N/A,,Clear,150,2012-11-18 10:33:00
4:53 AM,44.6,33.8,66,30.09,10.0,SSE,8.1,-,N/A,,Clear,150,2012-11-18 10:53:00
5:14 AM,44.6,33.8,66,30.08,10.0,SSE,10.4,-,N/A,,Clear,150,2012-11-18 11:14:00
5:33 AM,44.6,33.8,66,30.08,10.0,SSE,8.1,-,N/A,,Clear,150,2012-11-18 11:33:00
5:53 AM,44.6,33.8,66,30.08,10.0,SSE,9.2,-,N/A,,Clear,150,2012-11-18 11:53:00
6:13 AM,44.6,33.8,66,30.08,10.0,SSE,8.1,-,N/A,,Clear,150,2012-11-18 12:13:00
6:33 AM,44.6,33.8,66,30.08,10.0,SSE,6.9,-,N/A,,Clear,150,2012-11-18 12:33:00
6:53 AM,44.6,32.0,61,30.08,10.0,SSE,8.1,-,N/A,,Clear,150,2012-11-18 12:53:00
7:13 AM,44.6,32.0,61,30.07,10.0,SSE,8.1,-,N/A,,Clear,150,2012-11-18 13:13:00
7:33 AM,42.8,32.0,66,30.07,10.0,SSE,9.2,-,N/A,,Clear,150,2012-11-18 13:33:00
7:53 AM,42.8,32.0,66,30.07,10.0,SSE,9.2,-,N/A,,Clear,150,2012-11-18 13:53:00
8:13 AM,42.8,32.0,66,30.07,10.0,SSE,8.1,-,N/A,,Clear,150,2012-11-18 14:13:00
8:33 AM,44.6,32.0,61,30.07,10.0,SSE,8.1,-,N/A,,Clear,160,2012-11-18 14:33:00
8:53 AM,46.4,32.0,57,30.07,10.0,SSE,10.4,-,N/A,,Clear,160,2012-11-18 14:53:00
9:13 AM,46.4,33.8,62,30.07,10.0,SSE,8.1,-,N/A,,Clear,150,2012-11-18 15:13:00
9:33 AM,48.2,33.8,58,30.07,10.0,SSE,6.9,-,N/A,,Clear,160,2012-11-18 15:33:00
9:53 AM,50.0,33.8,54,30.07,10.0,SSE,9.2,-,N/A,,Clear,160,2012-11-18 15:53:00
10:13 AM,50.0,33.8,54,30.07,10.0,South,9.2,-,N/A,,Clear,170,2012-11-18 16:13:00
10:33 AM,51.8,33.8,50,30.07,10.0,South,6.9,-,N/A,,Clear,180,2012-11-18 16:33:00
10:53 AM,51.8,33.8,50,30.07,10.0,South,4.6,-,N/A,,Clear,170,2012-11-18 16:53:00
11:13 AM,53.6,33.8,47,30.06,10.0,SSE,5.8,-,N/A,,Clear,160,2012-11-18 17:13:00
11:33 AM,53.6,33.8,47,30.05,10.0,SSE,5.8,-,N/A,,Clear,160,2012-11-18 17:33:00
11:53 AM,53.6,33.8,47,-9999,10.0,SSE,6.9,-,N/A,,Clear,160,2012-11-18 17:53:00
12:13 PM,55.4,33.8,44,30.04,10.0,SSE,8.1,-,N/A,,Clear,160,2012-11-18 18:13:00
12:33 PM,55.4,33.8,44,30.04,10.0,SSE,9.2,18.4,N/A,,Clear,160,2012-11-18 18:33:00
12:53 PM,55.4,35.6,47,30.03,10.0,SSE,5.8,-,N/A,,Clear,160,2012-11-18 18:53:00
1:13 PM,57.2,35.6,44,30.03,10.0,SSE,8.1,17.3,N/A,,Clear,160,2012-11-18 19:13:00
1:33 PM,57.2,35.6,44,30.03,10.0,SSE,6.9,-,N/A,,Clear,150,2012-11-18 19:33:00
1:53 PM,57.2,35.6,44,30.03,10.0,SSE,5.8,-,N/A,,Clear,160,2012-11-18 19:53:00
2:13 PM,57.2,35.6,44,30.03,10.0,South,6.9,-,N/A,,Clear,170,2012-11-18 20:13:00
2:33 PM,55.4,35.6,47,30.03,10.0,SSE,5.8,-,N/A,,Clear,150,2012-11-18 20:33:00
2:53 PM,55.4,35.6,47,30.03,10.0,SSE,4.6,-,N/A,,Clear,160,2012-11-18 20:53:00
3:13 PM,55.4,35.6,47,30.03,10.0,SSE,6.9,-,N/A,,Clear,150,2012-11-18 21:13:00
3:33 PM,55.4,35.6,47,30.03,10.0,SSE,5.8,-,N/A,,Clear,150,2012-11-18 21:33:00
3:53 PM,55.4,35.6,47,30.02,10.0,SSE,5.8,-,N/A,,Clear,150,2012-11-18 21:53:00
4:13 PM,55.4,35.6,47,30.03,10.0,SSE,5.8,-,N/A,,Clear,150,2012-11-18 22:13:00
4:33 PM,55.4,35.6,47,30.03,10.0,SSE,5.8,-,N/A,,Clear,150,2012-11-18 22:33:00
4:53 PM,53.6,35.6,51,30.04,10.0,SSE,6.9,-,N/A,,Clear,150,2012-11-18 22:53:00
5:13 PM,53.6,35.6,51,30.04,10.0,SSE,5.8,-,N/A,,Scattered Clouds,150,2012-11-18 23:13:00
5:33 PM,53.6,35.6,51,30.04,10.0,SE,6.9,-,N/A,,Clear,140,2012-11-18 23:33:00
5:53 PM,51.8,35.6,54,30.04,10.0,SE,5.8,-,N/A,,Unknown,130,2012-11-18 23:53:00
6:13 PM,51.8,35.6,54,30.04,10.0,SE,5.8,-,N/A,,Unknown,140,2012-11-19 00:13:00
6:33 PM,50.0,35.6,58,30.04,10.0,SE,6.9,-,N/A,,Clear,130,2012-11-19 00:33:00
6:53 PM,48.2,35.6,62,30.04,10.0,SE,6.9,-,N/A,,Clear,140,2012-11-19 00:53:00
7:13 PM,48.2,35.6,62,30.04,10.0,SE,5.8,-,N/A,,Clear,140,2012-11-19 01:13:00
7:33 PM,51.8,35.6,54,30.04,10.0,SSE,6.9,-,N/A,,Clear,150,2012-11-19 01:33:00
7:53 PM,51.8,35.6,54,30.04,10.0,SSE,8.1,-,N/A,,Clear,150,2012-11-19 01:53:00
8:13 PM,51.8,35.6,54,30.04,10.0,SSE,8.1,-,N/A,,Clear,150,2012-11-19 02:13:00
8:33 PM,51.8,35.6,54,30.04,10.0,SSE,5.8,-,N/A,,Clear,150,2012-11-19 02:33:00
8:53 PM,51.8,35.6,54,30.04,10.0,SSE,6.9,-,N/A,,Clear,160,2012-11-19 02:53:00
9:13 PM,51.8,35.6,54,30.05,10.0,SSE,6.9,-,N/A,,Clear,160,2012-11-19 03:13:00
9:33 PM,50.0,35.6,58,30.05,10.0,SSE,5.8,-,N/A,,Clear,160,2012-11-19 03:33:00
9:53 PM,48.2,35.6,62,30.05,10.0,SSE,5.8,-,N/A,,Clear,160,2012-11-19 03:53:00
10:13 PM,48.2,35.6,62,30.04,10.0,SSE,6.9,-,N/A,,Clear,160,2012-11-19 04:13:00
10:33 PM,48.2,35.6,62,30.04,10.0,SSE,6.9,-,N/A,,Clear,160,2012-11-19 04:33:00
10:53 PM,48.2,35.6,62,30.04,10.0,SSE,8.1,-,N/A,,Clear,160,2012-11-19 04:53:00
11:13 PM,48.2,35.6,62,30.04,10.0,SSE,6.9,-,N/A,,Clear,160,2012-11-19 05:13:00
11:33 PM,48.2,35.6,62,30.04,10.0,SSE,6.9,-,N/A,,Clear,150,2012-11-19 05:33:00
11:53 PM,46.4,35.6,66,30.03,10.0,SSE,8.1,-,N/A,,Clear,150,2012-11-19 05:53:00